Time;durP1;ratioP1;P1;durP2;ratioP2;P2;SDS_P1;SDS_P2;PMS_P1;PMS_P2;Temp;Humidity;BMP_temperature;BMP_pressure;BME280_temperature;BME280_humidity;BME280_pressure;Samples;Min_cycle;Max_cycle;Signal;HPM_P1;HPM_P2
2023/05/22 00:02:04;;;;;;;;;2.25;2.25;;;;;;;;5057821;28;45374;-78
2023/05/22 00:04:30;;;;;;;;;5.33;4.00;;;;;;;;5058066;28;45449;-77
2023/05/22 00:06:56;;;;;;;;;3.75;3.00;;;;;;;;5057833;28;45410;-78
2023/05/22 00:09:22;;;;;;;;;2.00;2.00;;;;;;;;5058194;28;45415;-77
2023/05/22 00:11:47;;;;;;;;;6.50;3.00;;;;;;;;5058064;28;45408;-78
2023/05/22 00:14:13;;;;;;;;;3.00;3.00;;;;;;;;5058075;28;45952;-78
2023/05/22 00:16:38;;;;;;;;;4.67;3.67;;;;;;;;5057468;28;45340;-78
2023/05/22 00:19:03;;;;;;;;;3.25;3.25;;;;;;;;5058212;28;45368;-76
2023/05/22 00:21:33;;;;;;;;;6.25;3.50;;;;;;;;5057995;28;45500;-78
2023/05/22 00:23:58;;;;;;;;;6.00;3.00;;;;;;;;5057744;28;46453;-77
2023/05/22 00:26:24;;;;;;;;;4.33;4.00;;;;;;;;5057817;28;45371;-78
2023/05/22 00:28:49;;;;;;;;;6.00;3.75;;;;;;;;5057863;28;45406;-77
2023/05/22 00:31:15;;;;;;;;;3.75;3.00;;;;;;;;5057459;28;45422;-78
2023/05/22 00:33:40;;;;;;;;;5.00;3.25;;;;;;;;5057697;28;46441;-78
2023/05/22 00:36:06;;;;;;;;;6.25;4.00;;;;;;;;5057707;28;45309;-78
2023/05/22 00:38:32;;;;;;;;;4.33;3.33;;;;;;;;5039896;28;45348;-78
2023/05/22 00:40:58;;;;;;;;;4.00;4.00;;;;;;;;5057800;28;45381;-77
2023/05/22 00:43:23;;;;;;;;;3.00;3.00;;;;;;;;5057639;28;45354;-78
2023/05/22 00:45:48;;;;;;;;;3.33;3.00;;;;;;;;5056924;28;45356;-77
2023/05/22 00:48:15;;;;;;;;;3.00;3.00;;;;;;;;5057657;28;45353;-78
2023/05/22 00:50:40;;;;;;;;;7.67;3.00;;;;;;;;5057537;28;45202;-78
2023/05/22 00:53:06;;;;;;;;;4.00;4.00;;;;;;;;5039155;28;46903;-78
2023/05/22 00:55:31;;;;;;;;;2.75;2.75;;;;;;;;5057398;28;45405;-77
2023/05/22 00:57:56;;;;;;;;;6.67;3.00;;;;;;;;5057484;28;45338;-78
2023/05/22 01:00:22;;;;;;;;;4.75;3.50;;;;;;;;5057109;28;45312;-77
2023/05/22 01:02:47;;;;;;;;;4.00;3.00;;;;;;;;5057108;28;45626;-78
2023/05/22 01:05:16;;;;;;;;;7.25;4.75;;;;;;;;5057179;28;45498;-78
2023/05/22 01:07:42;;;;;;;;;6.00;3.00;;;;;;;;5057159;28;45767;-77
2023/05/22 01:10:07;;;;;;;;;2.25;1.00;;;;;;;;5056915;28;45340;-77
2023/05/22 01:12:32;;;;;;;;;4.50;3.75;;;;;;;;5056827;28;45437;-78
2023/05/22 01:15:16;;;;;;;;;2.33;2.00;;;;;;;;5056681;28;45493;-77
2023/05/22 01:17:51;;;;;;;;;5.75;3.00;;;;;;;;5057002;28;45340;-78
2023/05/22 01:20:26;;;;;;;;;6.25;4.25;;;;;;;;5056910;28;45515;-77
2023/05/22 01:23:13;;;;;;;;;5.00;3.00;;;;;;;;5056889;28;45416;-78
2023/05/22 01:25:39;;;;;;;;;3.00;3.00;;;;;;;;5056915;28;45431;-77
2023/05/22 01:28:10;;;;;;;;;3.75;3.75;;;;;;;;5056636;28;45474;-77
2023/05/22 01:30:53;;;;;;;;;4.00;3.00;;;;;;;;5056712;28;45561;-77
2023/05/22 01:33:20;;;;;;;;;7.00;4.50;;;;;;;;5056594;28;46510;-77
2023/05/22 01:35:47;;;;;;;;;2.50;2.50;;;;;;;;5056850;28;45309;-77
2023/05/22 01:38:13;;;;;;;;;4.75;4.75;;;;;;;;5056935;28;45349;-78
2023/05/22 01:40:39;;;;;;;;;7.50;4.00;;;;;;;;5056639;28;45349;-77
2023/05/22 01:43:04;;;;;;;;;4.50;3.00;;;;;;;;5055989;28;45352;-78
2023/05/22 01:45:30;;;;;;;;;4.67;3.67;;;;;;;;5056516;28;45381;-77
2023/05/22 01:47:55;;;;;;;;;4.00;4.00;;;;;;;;5056536;28;45280;-77
2023/05/22 01:50:21;;;;;;;;;3.00;3.00;;;;;;;;5056647;28;45487;-78
2023/05/22 01:53:02;;;;;;;;;3.00;3.00;;;;;;;;5056164;28;46217;-78
2023/05/22 01:55:33;;;;;;;;;4.00;3.00;;;;;;;;5056444;28;45355;-77
2023/05/22 01:58:02;;;;;;;;;5.00;3.25;;;;;;;;5056212;28;45444;-77
2023/05/22 02:00:28;;;;;;;;;6.00;3.75;;;;;;;;5056471;28;45411;-77
2023/05/22 02:02:56;;;;;;;;;5.00;3.00;;;;;;;;5056115;28;46303;-77
2023/05/22 02:05:22;;;;;;;;;4.75;2.00;;;;;;;;5056415;28;45724;-78
2023/05/22 02:07:48;;;;;;;;;5.50;4.00;;;;;;;;5056319;28;45324;-78
2023/05/22 02:10:14;;;;;;;;;5.25;2.00;;;;;;;;5056359;28;45574;-77
2023/05/22 02:12:40;;;;;;;;;3.00;1.00;;;;;;;;5055449;28;45442;-78
2023/05/22 02:15:07;;;;;;;;;6.50;2.50;;;;;;;;5056064;28;45301;-77
2023/05/22 02:17:39;;;;;;;;;4.00;3.00;;;;;;;;5055753;28;45359;-78
2023/05/22 02:20:05;;;;;;;;;6.75;4.00;;;;;;;;5056306;28;45523;-77
2023/05/22 02:22:30;;;;;;;;;4.75;4.00;;;;;;;;5055785;28;45722;-77
2023/05/22 02:24:55;;;;;;;;;3.00;3.00;;;;;;;;5056104;28;45391;-78
2023/05/22 02:27:20;;;;;;;;;7.00;3.67;;;;;;;;5055889;28;45392;-77
2023/05/22 02:29:45;;;;;;;;;6.33;4.67;;;;;;;;5056199;28;45564;-77
2023/05/22 02:32:11;;;;;;;;;4.67;3.33;;;;;;;;5055989;28;45651;-78
2023/05/22 02:34:37;;;;;;;;;10.00;4.00;;;;;;;;5055904;28;45447;-77
2023/05/22 02:37:02;;;;;;;;;3.00;3.00;;;;;;;;5056039;28;45292;-77
2023/05/22 02:39:28;;;;;;;;;5.25;3.75;;;;;;;;5055989;28;45360;-77
2023/05/22 02:41:54;;;;;;;;;5.00;5.00;;;;;;;;5055280;28;45394;-78
2023/05/22 02:44:19;;;;;;;;;5.00;2.50;;;;;;;;5055620;28;45266;-77
2023/05/22 02:46:46;;;;;;;;;6.00;4.00;;;;;;;;5055637;28;45300;-77
2023/05/22 02:49:11;;;;;;;;;5.00;3.00;;;;;;;;5055831;28;45546;-77
2023/05/22 02:51:36;;;;;;;;;4.00;2.00;;;;;;;;5055623;28;45557;-77
2023/05/22 02:54:02;;;;;;;;;5.67;5.00;;;;;;;;5055393;28;45376;-78
2023/05/22 02:56:28;;;;;;;;;5.00;4.00;;;;;;;;5055096;28;45579;-78
2023/05/22 02:58:53;;;;;;;;;3.00;3.00;;;;;;;;5055557;28;45580;-77
2023/05/22 03:01:18;;;;;;;;;4.00;4.00;;;;;;;;5054998;28;45449;-78
2023/05/22 03:03:43;;;;;;;;;6.67;3.33;;;;;;;;5055429;28;45673;-78
2023/05/22 03:06:09;;;;;;;;;5.67;2.67;;;;;;;;5055525;28;45360;-78
2023/05/22 03:08:37;;;;;;;;;3.75;3.00;;;;;;;;5055483;28;45501;-78
2023/05/22 03:11:02;;;;;;;;;6.50;4.75;;;;;;;;5054982;28;46711;-78
2023/05/22 03:13:27;;;;;;;;;3.25;3.00;;;;;;;;5055053;28;45480;-78
2023/05/22 03:15:52;;;;;;;;;3.00;3.00;;;;;;;;5037309;28;45351;-78
2023/05/22 03:18:18;;;;;;;;;9.00;5.00;;;;;;;;5055483;28;45437;-79
2023/05/22 03:20:43;;;;;;;;;7.33;3.00;;;;;;;;5055221;28;45391;-78
2023/05/22 03:23:10;;;;;;;;;3.00;3.00;;;;;;;;5055060;28;45389;-78
2023/05/22 03:25:35;;;;;;;;;5.25;3.00;;;;;;;;5055034;28;45634;-78
2023/05/22 03:28:00;;;;;;;;;4.00;3.00;;;;;;;;5055298;28;45477;-78
2023/05/22 03:30:25;;;;;;;;;3.33;3.00;;;;;;;;5056298;28;45302;-79
2023/05/22 03:32:51;;;;;;;;;4.00;3.00;;;;;;;;5040635;28;45316;-78
2023/05/22 03:35:18;;;;;;;;;6.50;4.50;;;;;;;;5058824;28;45688;-78
2023/05/22 03:37:44;;;;;;;;;5.50;3.75;;;;;;;;5058687;28;45416;-78
2023/05/22 03:40:09;;;;;;;;;5.50;3.00;;;;;;;;5058086;28;45375;-78
2023/05/22 03:42:34;;;;;;;;;3.50;3.50;;;;;;;;5058397;28;45355;-78
2023/05/22 03:45:00;;;;;;;;;4.25;4.25;;;;;;;;5058360;28;45717;-79
2023/05/22 03:47:25;;;;;;;;;3.00;3.00;;;;;;;;5058522;28;45413;-79
2023/05/22 03:49:50;;;;;;;;;9.67;3.33;;;;;;;;5058262;28;46253;-79
2023/05/22 03:52:15;;;;;;;;;9.33;4.00;;;;;;;;5040362;28;45840;-78
2023/05/22 03:54:40;;;;;;;;;5.33;3.00;;;;;;;;5058301;28;45439;-79
2023/05/22 03:57:05;;;;;;;;;4.67;3.00;;;;;;;;5058390;28;45288;-79
2023/05/22 03:59:31;;;;;;;;;10.00;4.00;;;;;;;;5058307;28;45477;-79
2023/05/22 04:01:59;;;;;;;;;2.67;2.67;;;;;;;;5058220;28;45415;-78
2023/05/22 04:04:25;;;;;;;;;4.00;4.00;;;;;;;;5058377;28;45300;-78
2023/05/22 04:06:51;;;;;;;;;3.75;2.00;;;;;;;;5058270;28;45313;-79
2023/05/22 04:09:17;;;;;;;;;6.75;2.50;;;;;;;;5039808;28;46199;-77
2023/05/22 04:11:42;;;;;;;;;6.75;4.00;;;;;;;;5058070;28;45322;-78
2023/05/22 04:14:07;;;;;;;;;5.00;4.00;;;;;;;;5058102;28;45324;-78
2023/05/22 04:16:33;;;;;;;;;4.00;4.00;;;;;;;;5057981;28;45309;-78
2023/05/22 04:19:00;;;;;;;;;3.67;3.67;;;;;;;;5057780;28;46362;-78
2023/05/22 04:21:26;;;;;;;;;4.00;3.75;;;;;;;;5057420;28;45337;-78
2023/05/22 04:23:51;;;;;;;;;4.75;3.00;;;;;;;;5057901;28;45399;-78
2023/05/22 04:26:16;;;;;;;;;5.67;3.33;;;;;;;;5058084;28;45427;-78
2023/05/22 04:28:44;;;;;;;;;4.50;4.00;;;;;;;;5057703;28;45448;-78
2023/05/22 04:31:10;;;;;;;;;4.25;2.00;;;;;;;;5057728;28;45741;-78
2023/05/22 04:33:35;;;;;;;;;4.33;4.00;;;;;;;;5057980;28;45506;-78
2023/05/22 04:36:01;;;;;;;;;7.00;3.67;;;;;;;;5057286;28;45608;-78
2023/05/22 04:38:26;;;;;;;;;5.00;4.00;;;;;;;;5057502;28;45507;-78
2023/05/22 04:40:51;;;;;;;;;4.00;3.00;;;;;;;;5057407;28;45578;-78
2023/05/22 04:43:17;;;;;;;;;5.00;2.25;;;;;;;;5057300;28;45521;-78
2023/05/22 04:45:42;;;;;;;;;6.50;4.00;;;;;;;;5057535;28;45523;-78
2023/05/22 04:48:07;;;;;;;;;4.67;4.00;;;;;;;;5039479;28;47362;-78
2023/05/22 04:50:33;;;;;;;;;6.67;4.00;;;;;;;;5057123;28;45380;-78
2023/05/22 04:52:58;;;;;;;;;6.00;3.00;;;;;;;;5057627;28;45354;-79
2023/05/22 04:55:24;;;;;;;;;4.75;4.75;;;;;;;;5039540;28;45349;-79
2023/05/22 04:57:49;;;;;;;;;3.00;3.00;;;;;;;;5057268;28;47637;-79
2023/05/22 05:00:15;;;;;;;;;5.00;4.00;;;;;;;;5057519;28;45492;-78
2023/05/22 05:02:41;;;;;;;;;8.50;4.00;;;;;;;;5057339;28;45330;-79
2023/05/22 05:05:06;;;;;;;;;4.25;2.00;;;;;;;;5057069;28;45369;-78
2023/05/22 05:07:31;;;;;;;;;5.25;5.00;;;;;;;;5057053;28;48204;-79
2023/05/22 05:09:56;;;;;;;;;7.00;4.33;;;;;;;;5057242;28;45254;-78
2023/05/22 05:12:22;;;;;;;;;5.00;4.67;;;;;;;;5057407;28;45274;-78
2023/05/22 05:14:47;;;;;;;;;5.00;4.00;;;;;;;;5057182;28;45555;-78
2023/05/22 05:17:12;;;;;;;;;4.33;3.00;;;;;;;;5056875;28;47081;-78
2023/05/22 05:19:38;;;;;;;;;5.00;4.75;;;;;;;;5056636;28;45380;-79
2023/05/22 05:22:03;;;;;;;;;5.00;4.25;;;;;;;;5057127;28;45318;-78
2023/05/22 05:24:29;;;;;;;;;6.00;4.25;;;;;;;;5057064;28;45297;-81
2023/05/22 05:26:54;;;;;;;;;4.50;3.00;;;;;;;;5056944;28;45521;-81
2023/05/22 05:29:20;;;;;;;;;5.00;3.25;;;;;;;;5056868;28;45384;-80
2023/05/22 05:31:45;;;;;;;;;6.25;3.75;;;;;;;;5057207;28;45433;-80
2023/05/22 05:34:12;;;;;;;;;4.33;4.33;;;;;;;;5056645;28;45442;-79
2023/05/22 05:36:37;;;;;;;;;5.00;4.25;;;;;;;;5056855;28;45535;-80
2023/05/22 05:39:02;;;;;;;;;4.00;4.00;;;;;;;;5056872;28;45348;-80
2023/05/22 05:41:28;;;;;;;;;5.50;3.75;;;;;;;;5056668;28;45431;-80
2023/05/22 05:43:56;;;;;;;;;5.00;3.00;;;;;;;;5056811;28;45250;-79
2023/05/22 05:46:21;;;;;;;;;4.50;3.00;;;;;;;;5056281;28;47372;-79
2023/05/22 05:48:46;;;;;;;;;3.50;3.50;;;;;;;;5056187;28;45261;-80
2023/05/22 05:51:12;;;;;;;;;6.33;3.67;;;;;;;;5056247;28;45266;-79
2023/05/22 05:53:39;;;;;;;;;5.00;4.67;;;;;;;;5053804;28;45451;-79
2023/05/22 05:56:05;;;;;;;;;6.75;3.25;;;;;;;;5056221;28;46385;-79
2023/05/22 05:58:30;;;;;;;;;5.50;5.00;;;;;;;;5037947;28;45944;-78
2023/05/22 06:00:56;;;;;;;;;7.33;5.00;;;;;;;;5056484;28;45234;-78
2023/05/22 06:03:21;;;;;;;;;11.00;3.25;;;;;;;;5055942;28;45641;-78
2023/05/22 06:05:46;;;;;;;;;4.67;3.67;;;;;;;;5034350;28;47578;-78
2023/05/22 06:08:12;;;;;;;;;6.00;3.00;;;;;;;;5052447;28;45666;-77
2023/05/22 06:10:37;;;;;;;;;4.00;3.25;;;;;;;;5054336;28;45697;-77
2023/05/22 06:13:02;;;;;;;;;4.67;3.00;;;;;;;;5054722;28;45392;-78
2023/05/22 06:15:29;;;;;;;;;7.00;3.67;;;;;;;;5054371;28;47384;-78
2023/05/22 06:17:55;;;;;;;;;3.75;3.00;;;;;;;;5053016;28;45586;-78
2023/05/22 06:20:20;;;;;;;;;5.00;5.00;;;;;;;;5054142;28;45638;-78
2023/05/22 06:22:46;;;;;;;;;4.00;3.50;;;;;;;;5054719;28;45470;-78
2023/05/22 06:25:11;;;;;;;;;5.67;3.00;;;;;;;;5054681;28;46634;-78
2023/05/22 06:27:36;;;;;;;;;7.75;5.25;;;;;;;;5054378;28;45406;-81
2023/05/22 06:30:02;;;;;;;;;10.67;4.00;;;;;;;;5055515;28;45584;-80
2023/05/22 06:32:27;;;;;;;;;5.00;3.00;;;;;;;;5055110;28;45508;-80
2023/05/22 06:34:52;;;;;;;;;5.33;3.00;;;;;;;;5054978;28;47056;-79
2023/05/22 06:37:17;;;;;;;;;4.75;4.50;;;;;;;;5055435;28;45389;-79
2023/05/22 06:39:43;;;;;;;;;5.33;3.00;;;;;;;;5055392;28;45367;-79
2023/05/22 06:42:08;;;;;;;;;6.67;4.00;;;;;;;;5055079;28;45338;-78
2023/05/22 06:44:33;;;;;;;;;4.67;2.67;;;;;;;;5054730;28;45681;-78
2023/05/22 06:46:58;;;;;;;;;8.67;4.00;;;;;;;;5053632;28;45443;-79
2023/05/22 06:49:24;;;;;;;;;6.00;4.33;;;;;;;;5054895;28;45604;-79
2023/05/22 06:51:49;;;;;;;;;2.50;2.50;;;;;;;;5055207;28;45363;-79
2023/05/22 06:54:15;;;;;;;;;4.25;2.75;;;;;;;;5055383;28;46028;-79
2023/05/22 06:56:40;;;;;;;;;4.33;4.00;;;;;;;;5055011;28;45424;-78
2023/05/22 06:59:05;;;;;;;;;5.00;3.25;;;;;;;;5055063;28;45278;-78
2023/05/22 07:01:31;;;;;;;;;4.25;3.75;;;;;;;;5054084;28;45678;-79
2023/05/22 07:03:59;;;;;;;;;5.00;4.00;;;;;;;;5055263;28;46400;-79
2023/05/22 07:06:24;;;;;;;;;7.50;3.00;;;;;;;;5058640;28;45325;-78
2023/05/22 07:08:50;;;;;;;;;6.75;5.00;;;;;;;;5058827;28;45500;-79
2023/05/22 07:11:15;;;;;;;;;4.50;3.50;;;;;;;;5058606;28;45530;-79
2023/05/22 07:13:40;;;;;;;;;5.00;4.00;;;;;;;;5058305;28;46740;-79
2023/05/22 07:16:06;;;;;;;;;11.75;3.00;;;;;;;;5058349;28;45415;-79
2023/05/22 07:18:31;;;;;;;;;7.50;4.50;;;;;;;;5058640;28;45376;-78
2023/05/22 07:20:57;;;;;;;;;4.33;4.00;;;;;;;;5058612;28;45452;-78
2023/05/22 07:23:22;;;;;;;;;8.00;5.25;;;;;;;;5057953;28;46552;-79
2023/05/22 07:25:47;;;;;;;;;9.33;5.00;;;;;;;;5058402;28;45447;-78
2023/05/22 07:28:12;;;;;;;;;4.67;4.67;;;;;;;;5058594;28;45346;-78
2023/05/22 07:30:38;;;;;;;;;10.67;4.67;;;;;;;;5058023;28;45551;-79
2023/05/22 07:33:04;;;;;;;;;4.75;4.75;;;;;;;;5058272;28;45479;-78
2023/05/22 07:35:29;;;;;;;;;7.75;4.00;;;;;;;;5058466;28;45316;-78
2023/05/22 07:37:54;;;;;;;;;5.67;3.67;;;;;;;;5058455;28;45486;-78
2023/05/22 07:40:19;;;;;;;;;5.00;4.33;;;;;;;;5058438;28;45221;-76
2023/05/22 07:42:44;;;;;;;;;8.00;5.00;;;;;;;;5057885;28;45392;-78
2023/05/22 07:45:10;;;;;;;;;4.33;4.33;;;;;;;;5057870;28;45358;-76
2023/05/22 07:47:35;;;;;;;;;9.00;4.75;;;;;;;;5058284;28;45340;-76
2023/05/22 07:50:03;;;;;;;;;5.00;4.00;;;;;;;;5058196;28;45301;-76
2023/05/22 07:52:28;;;;;;;;;7.75;3.25;;;;;;;;5057827;28;46380;-78
2023/05/22 07:54:53;;;;;;;;;4.00;4.00;;;;;;;;5057869;28;45392;-76
2023/05/22 07:57:19;;;;;;;;;4.67;3.33;;;;;;;;5058062;28;45434;-76
2023/05/22 07:59:44;;;;;;;;;8.00;3.00;;;;;;;;5054525;28;45694;-76
2023/05/22 08:02:09;;;;;;;;;7.67;3.67;;;;;;;;5056262;28;46583;-76
2023/05/22 08:04:34;;;;;;;;;5.50;5.00;;;;;;;;5057397;28;45499;-76
2023/05/22 08:07:00;;;;;;;;;4.67;3.00;;;;;;;;5057932;28;45537;-76
2023/05/22 08:09:25;;;;;;;;;7.00;4.00;;;;;;;;5057200;28;45564;-75
2023/05/22 08:11:50;;;;;;;;;3.50;3.00;;;;;;;;5056970;28;46408;-76
2023/05/22 08:14:16;;;;;;;;;5.33;4.00;;;;;;;;5054318;28;45375;-75
2023/05/22 08:16:41;;;;;;;;;5.00;3.67;;;;;;;;5056943;28;45593;-74
2023/05/22 08:19:06;;;;;;;;;6.67;3.67;;;;;;;;5057514;28;45304;-75
2023/05/22 08:21:36;;;;;;;;;7.50;5.00;;;;;;;;5057442;28;46130;-77
2023/05/22 08:24:01;;;;;;;;;7.50;5.50;;;;;;;;5057208;28;45795;-76
2023/05/22 08:26:26;;;;;;;;;7.67;4.67;;;;;;;;5053902;28;45475;-76
2023/05/22 08:28:51;;;;;;;;;6.00;3.75;;;;;;;;5056452;28;45652;-75
2023/05/22 08:31:17;;;;;;;;;7.00;4.67;;;;;;;;5056879;28;45483;-74
2023/05/22 08:33:42;;;;;;;;;7.00;4.00;;;;;;;;5057667;28;45391;-76
2023/05/22 08:36:07;;;;;;;;;7.33;5.00;;;;;;;;5057330;28;45437;-75
2023/05/22 08:38:32;;;;;;;;;6.33;5.00;;;;;;;;5057500;28;45413;-75
2023/05/22 08:40:58;;;;;;;;;8.33;5.67;;;;;;;;5055521;28;46729;-76
2023/05/22 08:43:23;;;;;;;;;7.67;5.00;;;;;;;;5056222;28;45356;-75
2023/05/22 08:45:54;;;;;;;;;5.25;4.00;;;;;;;;5056962;28;45566;-76
2023/05/22 08:48:22;;;;;;;;;7.25;6.00;;;;;;;;5053010;28;45607;-78
2023/05/22 08:50:55;;;;;;;;;6.75;5.00;;;;;;;;5054956;28;47141;-78
2023/05/22 08:53:22;;;;;;;;;7.25;6.75;;;;;;;;5056459;28;45684;-78
2023/05/22 08:55:47;;;;;;;;;6.25;6.25;;;;;;;;5057045;28;45384;-77
2023/05/22 08:58:14;;;;;;;;;8.33;4.67;;;;;;;;5038731;28;45496;-79
2023/05/22 09:00:40;;;;;;;;;4.00;4.00;;;;;;;;5055749;28;46385;-78
2023/05/22 09:03:08;;;;;;;;;8.75;6.25;;;;;;;;5056383;28;45399;-78
2023/05/22 09:05:35;;;;;;;;;3.50;1.50;;;;;;;;5054939;28;46695;-78
2023/05/22 09:08:01;;;;;;;;;3.75;1.00;;;;;;;;5056508;28;45471;-79
2023/05/22 09:10:26;;;;;;;;;8.25;6.50;;;;;;;;5056596;28;45546;-78
2023/05/22 09:13:06;;;;;;;;;7.00;4.67;;;;;;;;5056555;28;45384;-76
2023/05/22 09:15:32;;;;;;;;;7.75;5.50;;;;;;;;5056689;28;45253;-76
2023/05/22 09:17:57;;;;;;;;;6.50;2.50;;;;;;;;5056599;28;45288;-76
2023/05/22 09:20:22;;;;;;;;;10.50;5.50;;;;;;;;5056663;28;45285;-76
2023/05/22 09:22:48;;;;;;;;;8.50;5.50;;;;;;;;5056614;28;45312;-76
2023/05/22 09:25:16;;;;;;;;;7.00;4.00;;;;;;;;5056640;28;45468;-76
2023/05/22 09:27:43;;;;;;;;;6.00;4.25;;;;;;;;5054854;28;45171;-76
2023/05/22 09:30:09;;;;;;;;;9.50;5.75;;;;;;;;5056376;28;46327;-76
2023/05/22 09:32:34;;;;;;;;;6.25;3.75;;;;;;;;5056377;28;45495;-76
2023/05/22 09:35:03;;;;;;;;;7.25;5.25;;;;;;;;5056718;28;45570;-75
2023/05/22 09:37:31;;;;;;;;;7.75;5.50;;;;;;;;5056192;28;45406;-76
2023/05/22 09:39:57;;;;;;;;;7.50;6.75;;;;;;;;5056314;28;45442;-75
2023/05/22 09:42:23;;;;;;;;;5.00;4.00;;;;;;;;5055844;28;45495;-76
2023/05/22 09:44:48;;;;;;;;;7.75;6.00;;;;;;;;5056321;28;45320;-75
2023/05/22 09:47:13;;;;;;;;;7.00;6.00;;;;;;;;5055972;28;45383;-75
2023/05/22 09:49:42;;;;;;;;;5.75;4.00;;;;;;;;5055940;28;46249;-76
2023/05/22 09:52:08;;;;;;;;;8.00;5.25;;;;;;;;5056142;28;45629;-75
2023/05/22 09:54:34;;;;;;;;;6.75;6.00;;;;;;;;5056054;28;45223;-76
2023/05/22 09:57:00;;;;;;;;;7.50;5.00;;;;;;;;5055682;28;45365;-78
2023/05/22 09:59:30;;;;;;;;;5.00;4.25;;;;;;;;5055736;28;47377;-78
2023/05/22 10:01:56;;;;;;;;;11.75;6.75;;;;;;;;5055825;28;45340;-76
2023/05/22 10:04:21;;;;;;;;;10.75;5.00;;;;;;;;5056192;28;45442;-76
2023/05/22 10:06:50;;;;;;;;;7.00;5.00;;;;;;;;5035186;28;45590;-76
2023/05/22 10:09:16;;;;;;;;;8.00;5.00;;;;;;;;5053570;28;46760;-75
2023/05/22 10:11:42;;;;;;;;;8.75;7.00;;;;;;;;5050303;28;45714;-75
2023/05/22 10:14:07;;;;;;;;;9.25;7.25;;;;;;;;5053709;28;45318;-77
2023/05/22 10:16:36;;;;;;;;;11.50;8.75;;;;;;;;5055256;28;45377;-77
2023/05/22 10:19:02;;;;;;;;;16.50;10.00;;;;;;;;5037546;28;46293;-76
2023/05/22 10:21:28;;;;;;;;;7.00;6.50;;;;;;;;5055387;28;45406;-76
2023/05/22 10:23:54;;;;;;;;;8.50;6.00;;;;;;;;5055384;28;45214;-75
2023/05/22 10:26:20;;;;;;;;;7.75;7.25;;;;;;;;5055342;28;45367;-74
2023/05/22 10:28:49;;;;;;;;;7.00;7.00;;;;;;;;5055579;28;45441;-75
2023/05/22 10:31:31;;;;;;;;;13.50;8.00;;;;;;;;5055342;28;45778;-78
2023/05/22 10:34:01;;;;;;;;;11.25;7.50;;;;;;;;5035635;28;45344;-78
2023/05/22 10:36:35;;;;;;;;;6.75;5.75;;;;;;;;5035166;28;45519;-76
2023/05/22 10:39:00;;;;;;;;;8.75;7.50;;;;;;;;5034622;28;45487;-76
2023/05/22 10:41:25;;;;;;;;;12.00;6.00;;;;;;;;5035067;28;45540;-76
2023/05/22 10:43:50;;;;;;;;;11.00;6.67;;;;;;;;5034981;28;45337;-76
2023/05/22 10:46:16;;;;;;;;;11.25;7.25;;;;;;;;5017008;28;45469;-77
2023/05/22 10:48:46;;;;;;;;;6.25;6.00;;;;;;;;5035107;28;46007;-75
2023/05/22 10:51:12;;;;;;;;;7.75;6.00;;;;;;;;5035028;28;45781;-76
2023/05/22 10:53:39;;;;;;;;;8.50;7.00;;;;;;;;5034864;28;45545;-75
2023/05/22 10:56:09;;;;;;;;;10.75;8.50;;;;;;;;5034822;28;45388;-75
2023/05/22 10:58:37;;;;;;;;;7.00;5.75;;;;;;;;5035072;28;47680;-76
2023/05/22 11:01:12;;;;;;;;;11.25;8.50;;;;;;;;5035072;28;45778;-76
2023/05/22 11:03:54;;;;;;;;;9.75;7.00;;;;;;;;5034926;28;45785;-77
2023/05/22 11:06:28;;;;;;;;;11.75;7.00;;;;;;;;5034918;28;45480;-79
2023/05/22 11:08:55;;;;;;;;;8.50;6.00;;;;;;;;5048534;28;45632;-75
2023/05/22 11:11:23;;;;;;;;;14.75;8.75;;;;;;;;5054896;28;45337;-77
2023/05/22 11:13:50;;;;;;;;;7.75;7.00;;;;;;;;5054989;28;45591;-77
2023/05/22 11:16:15;;;;;;;;;6.75;6.75;;;;;;;;5054815;28;45480;-77
2023/05/22 11:18:41;;;;;;;;;9.33;4.00;;;;;;;;5054893;28;45652;-76
2023/05/22 11:21:08;;;;;;;;;9.75;7.50;;;;;;;;5054905;28;45326;-77
2023/05/22 11:23:34;;;;;;;;;9.00;6.75;;;;;;;;5054727;28;45412;-76
2023/05/22 11:26:16;;;;;;;;;11.75;6.50;;;;;;;;5054668;28;45331;-77
2023/05/22 11:28:41;;;;;;;;;9.00;6.25;;;;;;;;5054930;28;46481;-77
2023/05/22 11:31:07;;;;;;;;;10.25;5.00;;;;;;;;5052969;28;45384;-77
2023/05/22 11:33:32;;;;;;;;;6.67;6.67;;;;;;;;5054893;28;45412;-77
2023/05/22 11:35:57;;;;;;;;;11.00;7.33;;;;;;;;5054683;28;45437;-77
2023/05/22 11:38:25;;;;;;;;;14.00;7.00;;;;;;;;5054199;28;46358;-77
2023/05/22 11:40:50;;;;;;;;;9.00;6.50;;;;;;;;5054750;28;45877;-76
2023/05/22 11:43:27;;;;;;;;;12.75;6.75;;;;;;;;5054732;28;45355;-77
2023/05/22 11:45:52;;;;;;;;;9.00;6.25;;;;;;;;5052729;28;45484;-77
2023/05/22 11:48:19;;;;;;;;;8.33;6.33;;;;;;;;5054577;28;46636;-77
2023/05/22 11:50:44;;;;;;;;;9.00;8.50;;;;;;;;5053789;28;45946;-76
2023/05/22 11:53:09;;;;;;;;;10.00;5.67;;;;;;;;5057738;28;45428;-76
2023/05/22 11:55:34;;;;;;;;;9.67;8.00;;;;;;;;5058008;28;45418;-77
2023/05/22 11:58:01;;;;;;;;;12.00;9.67;;;;;;;;5057606;28;45511;-76
2023/05/22 12:00:28;;;;;;;;;7.50;6.25;;;;;;;;5057737;28;45762;-77
2023/05/22 12:02:53;;;;;;;;;6.75;5.25;;;;;;;;5058083;28;45349;-77
2023/05/22 12:05:19;;;;;;;;;8.33;5.33;;;;;;;;5057747;28;45277;-77
2023/05/22 12:07:44;;;;;;;;;11.00;6.25;;;;;;;;5057014;28;46402;-76
2023/05/22 12:10:09;;;;;;;;;6.50;5.00;;;;;;;;5057796;28;45226;-76
2023/05/22 12:12:35;;;;;;;;;9.25;7.00;;;;;;;;5057655;28;45344;-75
2023/05/22 12:15:03;;;;;;;;;8.75;8.75;;;;;;;;5058055;28;45348;-77
2023/05/22 12:17:28;;;;;;;;;6.25;5.75;;;;;;;;5056949;28;45886;-77
2023/05/22 12:19:54;;;;;;;;;7.33;6.33;;;;;;;;5057063;28;45499;-76
2023/05/22 12:22:21;;;;;;;;;12.67;7.00;;;;;;;;5057585;28;45390;-77
2023/05/22 12:24:50;;;;;;;;;9.75;7.00;;;;;;;;5054322;28;45571;-77
2023/05/22 12:27:15;;;;;;;;;11.00;8.00;;;;;;;;5057137;28;45387;-77
2023/05/22 12:29:41;;;;;;;;;7.00;6.33;;;;;;;;5057585;28;45503;-78
2023/05/22 12:32:07;;;;;;;;;7.75;6.50;;;;;;;;5057484;28;45452;-77
2023/05/22 12:34:33;;;;;;;;;12.25;7.00;;;;;;;;5057011;28;45370;-77
2023/05/22 12:36:58;;;;;;;;;14.25;7.50;;;;;;;;5039042;28;46480;-77
2023/05/22 12:39:24;;;;;;;;;6.67;6.00;;;;;;;;5057309;28;45478;-77
2023/05/22 12:41:49;;;;;;;;;8.00;7.25;;;;;;;;5057131;28;45474;-76
2023/05/22 12:44:15;;;;;;;;;9.00;6.00;;;;;;;;5057574;28;45455;-77
2023/05/22 12:46:40;;;;;;;;;6.00;6.00;;;;;;;;5056596;28;46475;-77
2023/05/22 12:49:05;;;;;;;;;7.50;7.00;;;;;;;;5056490;28;45341;-77
2023/05/22 12:51:31;;;;;;;;;6.75;4.25;;;;;;;;5056952;28;45534;-77
2023/05/22 12:53:56;;;;;;;;;8.67;6.33;;;;;;;;5038605;28;45459;-77
2023/05/22 12:56:22;;;;;;;;;8.25;7.25;;;;;;;;5056573;28;46095;-77
2023/05/22 12:58:47;;;;;;;;;8.75;6.25;;;;;;;;5056563;28;45318;-76
2023/05/22 13:01:12;;;;;;;;;7.67;6.00;;;;;;;;5057201;28;45394;-77
2023/05/22 13:03:37;;;;;;;;;9.75;7.00;;;;;;;;5056173;28;45273;-77
2023/05/22 13:06:03;;;;;;;;;10.00;6.00;;;;;;;;5056722;28;46327;-77
2023/05/22 13:08:28;;;;;;;;;12.00;5.67;;;;;;;;5056554;28;45324;-78
2023/05/22 13:10:53;;;;;;;;;10.33;6.33;;;;;;;;5056996;28;45428;-77
2023/05/22 13:13:18;;;;;;;;;7.67;7.00;;;;;;;;5056798;28;45509;-77
2023/05/22 13:15:44;;;;;;;;;8.00;7.00;;;;;;;;5056686;28;45454;-76
2023/05/22 13:18:10;;;;;;;;;5.50;5.00;;;;;;;;5056412;28;45407;-76
2023/05/22 13:20:37;;;;;;;;;6.50;5.00;;;;;;;;5056650;28;45403;-77
2023/05/22 13:23:02;;;;;;;;;10.00;7.50;;;;;;;;5056735;28;45245;-77
2023/05/22 13:25:27;;;;;;;;;5.33;4.00;;;;;;;;5056458;28;46296;-77
2023/05/22 13:27:52;;;;;;;;;6.00;6.00;;;;;;;;5056024;28;45472;-76
2023/05/22 13:30:17;;;;;;;;;9.67;5.33;;;;;;;;5056896;28;45435;-76
2023/05/22 13:32:43;;;;;;;;;8.33;6.33;;;;;;;;5055923;28;45459;-77
2023/05/22 13:35:08;;;;;;;;;9.00;7.00;;;;;;;;5056243;28;46287;-78
2023/05/22 13:37:33;;;;;;;;;5.25;5.25;;;;;;;;5056119;28;45500;-77
2023/05/22 13:39:59;;;;;;;;;6.33;6.33;;;;;;;;5056602;28;45331;-76
2023/05/22 13:42:24;;;;;;;;;7.25;4.75;;;;;;;;5055986;28;45432;-77
2023/05/22 13:44:50;;;;;;;;;8.25;6.00;;;;;;;;5055820;28;46090;-77
2023/05/22 13:47:15;;;;;;;;;6.67;5.67;;;;;;;;5055711;28;45355;-77
2023/05/22 13:49:40;;;;;;;;;9.33;4.00;;;;;;;;5056412;28;45367;-77
2023/05/22 13:52:05;;;;;;;;;7.67;6.33;;;;;;;;5055805;28;45551;-77
2023/05/22 13:54:30;;;;;;;;;9.25;6.25;;;;;;;;5055527;28;46487;-76
2023/05/22 13:56:56;;;;;;;;;7.67;5.67;;;;;;;;5056162;28;45503;-77
2023/05/22 13:59:22;;;;;;;;;5.00;5.00;;;;;;;;5056397;28;45491;-78
2023/05/22 14:01:47;;;;;;;;;6.25;5.25;;;;;;;;5055911;28;45370;-77
2023/05/22 14:04:12;;;;;;;;;7.67;5.67;;;;;;;;5055925;28;46596;-76
2023/05/22 14:06:37;;;;;;;;;10.00;6.00;;;;;;;;5054624;28;45502;-78
2023/05/22 14:09:05;;;;;;;;;7.33;6.00;;;;;;;;5056073;28;45453;-78
2023/05/22 14:11:31;;;;;;;;;8.25;4.75;;;;;;;;5055180;28;45720;-78
2023/05/22 14:13:56;;;;;;;;;7.67;5.33;;;;;;;;5054737;28;46228;-78
2023/05/22 14:16:21;;;;;;;;;8.33;6.00;;;;;;;;5055375;28;45362;-78
2023/05/22 14:18:46;;;;;;;;;7.67;6.00;;;;;;;;5055637;28;45724;-77
2023/05/22 14:21:11;;;;;;;;;10.00;6.00;;;;;;;;5055709;28;45465;-78
2023/05/22 14:23:36;;;;;;;;;8.00;5.67;;;;;;;;5055620;28;46087;-79
2023/05/22 14:26:02;;;;;;;;;7.33;6.00;;;;;;;;5055701;28;45250;-77
2023/05/22 14:28:27;;;;;;;;;10.00;6.00;;;;;;;;5055032;28;45454;-78
2023/05/22 14:30:52;;;;;;;;;7.00;7.00;;;;;;;;5054043;28;45278;-78
2023/05/22 14:33:18;;;;;;;;;6.67;5.33;;;;;;;;5055510;28;45600;-77
2023/05/22 14:35:43;;;;;;;;;10.50;8.25;;;;;;;;5055436;28;45394;-77